sensor_id;sensor_type;location;lat;lon;timestamp;temperature;humidity
48416;DHT22;34227;51.840;4.146;2022-11-20T00:00:40;1.70;99.90
48416;DHT22;34227;51.840;4.146;2022-11-20T00:03:06;1.60;99.90
48416;DHT22;34227;51.840;4.146;2022-11-20T00:05:32;1.60;99.90
48416;DHT22;34227;51.840;4.146;2022-11-20T00:07:57;1.60;99.90
48416;DHT22;34227;51.840;4.146;2022-11-20T00:10:23;1.60;99.90
48416;DHT22;34227;51.840;4.146;2022-11-20T00:12:48;1.60;99.90
48416;DHT22;34227;51.840;4.146;2022-11-20T00:15:14;1.50;99.90
48416;DHT22;34227;51.840;4.146;2022-11-20T00:17:39;1.50;99.90
48416;DHT22;34227;51.840;4.146;2022-11-20T00:20:05;1.50;99.90
48416;DHT22;34227;51.840;4.146;2022-11-20T00:22:31;1.40;99.90
48416;DHT22;34227;51.840;4.146;2022-11-20T00:24:56;1.40;99.90
48416;DHT22;34227;51.840;4.146;2022-11-20T00:27:23;1.40;99.90
48416;DHT22;34227;51.840;4.146;2022-11-20T00:29:48;1.40;99.90
48416;DHT22;34227;51.840;4.146;2022-11-20T00:32:14;1.30;99.90
48416;DHT22;34227;51.840;4.146;2022-11-20T00:34:39;1.30;99.90
48416;DHT22;34227;51.840;4.146;2022-11-20T00:37:05;1.30;99.90
48416;DHT22;34227;51.840;4.146;2022-11-20T00:39:30;1.20;99.90
48416;DHT22;34227;51.840;4.146;2022-11-20T00:41:56;1.20;99.90
48416;DHT22;34227;51.840;4.146;2022-11-20T00:44:21;1.30;99.90
48416;DHT22;34227;51.840;4.146;2022-11-20T00:46:47;1.20;99.90
48416;DHT22;34227;51.840;4.146;2022-11-20T00:49:12;1.20;99.90
48416;DHT22;34227;51.840;4.146;2022-11-20T00:51:38;1.20;99.90
48416;DHT22;34227;51.840;4.146;2022-11-20T00:54:03;1.20;99.90
48416;DHT22;34227;51.840;4.146;2022-11-20T00:56:29;1.10;99.90
48416;DHT22;34227;51.840;4.146;2022-11-20T00:58:54;1.00;99.90
48416;DHT22;34227;51.840;4.146;2022-11-20T01:01:22;1.10;99.90
48416;DHT22;34227;51.840;4.146;2022-11-20T01:03:49;1.00;99.90
48416;DHT22;34227;51.840;4.146;2022-11-20T01:06:16;1.00;99.90
48416;DHT22;34227;51.840;4.146;2022-11-20T01:08:42;1.00;99.90
48416;DHT22;34227;51.840;4.146;2022-11-20T01:11:09;1.00;99.90
48416;DHT22;34227;51.840;4.146;2022-11-20T01:13:35;0.90;99.90
48416;DHT22;34227;51.840;4.146;2022-11-20T01:18:33;0.90;99.90
48416;DHT22;34227;51.840;4.146;2022-11-20T01:21:02;0.90;99.90
48416;DHT22;34227;51.840;4.146;2022-11-20T01:23:35;0.90;99.90
48416;DHT22;34227;51.840;4.146;2022-11-20T01:26:02;0.90;99.90
48416;DHT22;34227;51.840;4.146;2022-11-20T01:28:28;0.80;99.90
48416;DHT22;34227;51.840;4.146;2022-11-20T01:30:53;0.80;99.90
48416;DHT22;34227;51.840;4.146;2022-11-20T01:33:19;0.80;99.90
48416;DHT22;34227;51.840;4.146;2022-11-20T01:35:44;0.80;99.90
48416;DHT22;34227;51.840;4.146;2022-11-20T01:38:10;0.80;99.90
48416;DHT22;34227;51.840;4.146;2022-11-20T01:40:35;0.70;99.90
48416;DHT22;34227;51.840;4.146;2022-11-20T01:43:09;0.70;99.90
48416;DHT22;34227;51.840;4.146;2022-11-20T01:51:34;0.70;99.90
48416;DHT22;34227;51.840;4.146;2022-11-20T01:54:03;0.60;99.90
48416;DHT22;34227;51.840;4.146;2022-11-20T01:56:31;0.60;99.90
48416;DHT22;34227;51.840;4.146;2022-11-20T01:58:59;0.60;99.90
48416;DHT22;34227;51.840;4.146;2022-11-20T02:01:26;0.60;99.90
48416;DHT22;34227;51.840;4.146;2022-11-20T02:03:51;0.60;99.90
48416;DHT22;34227;51.840;4.146;2022-11-20T02:08:43;0.60;99.90
48416;DHT22;34227;51.840;4.146;2022-11-20T02:11:09;0.60;99.90
48416;DHT22;34227;51.840;4.146;2022-11-20T02:13:34;0.50;99.90
48416;DHT22;34227;51.840;4.146;2022-11-20T02:16:14;0.50;99.90
48416;DHT22;34227;51.840;4.146;2022-11-20T02:18:40;0.50;99.90
48416;DHT22;34227;51.840;4.146;2022-11-20T02:21:13;0.50;99.90
48416;DHT22;34227;51.840;4.146;2022-11-20T02:26:10;0.40;99.90
48416;DHT22;34227;51.840;4.146;2022-11-20T02:28:37;0.40;99.90
48416;DHT22;34227;51.840;4.146;2022-11-20T02:31:03;0.40;99.90
48416;DHT22;34227;51.840;4.146;2022-11-20T02:33:28;0.40;99.90
48416;DHT22;34227;51.840;4.146;2022-11-20T02:35:54;0.40;99.90
48416;DHT22;34227;51.840;4.146;2022-11-20T02:38:19;0.40;99.90
48416;DHT22;34227;51.840;4.146;2022-11-20T02:40:45;0.30;99.90
48416;DHT22;34227;51.840;4.146;2022-11-20T02:43:10;0.30;99.90
48416;DHT22;34227;51.840;4.146;2022-11-20T02:45:36;0.30;99.90
48416;DHT22;34227;51.840;4.146;2022-11-20T02:48:01;0.30;99.90
48416;DHT22;34227;51.840;4.146;2022-11-20T02:50:27;0.40;99.90
48416;DHT22;34227;51.840;4.146;2022-11-20T02:52:53;0.50;99.90
48416;DHT22;34227;51.840;4.146;2022-11-20T02:55:18;0.30;99.90
48416;DHT22;34227;51.840;4.146;2022-11-20T02:57:44;0.30;99.90
48416;DHT22;34227;51.840;4.146;2022-11-20T03:00:09;0.30;99.90
48416;DHT22;34227;51.840;4.146;2022-11-20T03:02:35;0.30;99.90
48416;DHT22;34227;51.840;4.146;2022-11-20T03:05:00;0.20;99.90
48416;DHT22;34227;51.840;4.146;2022-11-20T03:07:26;0.20;99.90
48416;DHT22;34227;51.840;4.146;2022-11-20T03:09:51;0.20;99.90
48416;DHT22;34227;51.840;4.146;2022-11-20T03:12:17;0.40;99.90
48416;DHT22;34227;51.840;4.146;2022-11-20T03:14:42;0.10;99.90
48416;DHT22;34227;51.840;4.146;2022-11-20T03:17:08;0.00;99.90
48416;DHT22;34227;51.840;4.146;2022-11-20T03:19:34;0.10;99.90
48416;DHT22;34227;51.840;4.146;2022-11-20T03:22:00;0.10;99.90
48416;DHT22;34227;51.840;4.146;2022-11-20T03:24:25;0.10;99.90
48416;DHT22;34227;51.840;4.146;2022-11-20T03:26:51;0.20;99.90
48416;DHT22;34227;51.840;4.146;2022-11-20T03:29:16;0.00;99.90
48416;DHT22;34227;51.840;4.146;2022-11-20T03:36:34;0.10;99.90
48416;DHT22;34227;51.840;4.146;2022-11-20T03:38:59;0.50;99.90
48416;DHT22;34227;51.840;4.146;2022-11-20T03:41:29;0.50;99.90
48416;DHT22;34227;51.840;4.146;2022-11-20T03:46:20;0.00;99.90
48416;DHT22;34227;51.840;4.146;2022-11-20T03:48:46;0.10;99.90
48416;DHT22;34227;51.840;4.146;2022-11-20T03:51:13;0.00;99.90
48416;DHT22;34227;51.840;4.146;2022-11-20T03:53:39;-0.10;99.90
48416;DHT22;34227;51.840;4.146;2022-11-20T03:56:05;0.00;99.90
48416;DHT22;34227;51.840;4.146;2022-11-20T03:58:32;0.00;99.90
48416;DHT22;34227;51.840;4.146;2022-11-20T04:00:58;-0.10;99.90
48416;DHT22;34227;51.840;4.146;2022-11-20T04:03:23;-0.10;99.90
48416;DHT22;34227;51.840;4.146;2022-11-20T04:05:49;-0.10;99.90
48416;DHT22;34227;51.840;4.146;2022-11-20T04:08:14;-0.10;99.90
48416;DHT22;34227;51.840;4.146;2022-11-20T04:10:40;-0.10;99.90
48416;DHT22;34227;51.840;4.146;2022-11-20T04:13:06;-0.10;99.90
48416;DHT22;34227;51.840;4.146;2022-11-20T04:15:31;-0.10;99.90
48416;DHT22;34227;51.840;4.146;2022-11-20T04:17:57;-0.20;99.90
48416;DHT22;34227;51.840;4.146;2022-11-20T04:20:22;-0.20;99.90
48416;DHT22;34227;51.840;4.146;2022-11-20T04:22:48;-0.20;99.90
48416;DHT22;34227;51.840;4.146;2022-11-20T04:25:13;-0.20;99.90
48416;DHT22;34227;51.840;4.146;2022-11-20T04:27:39;-0.20;99.90
48416;DHT22;34227;51.840;4.146;2022-11-20T04:30:04;-0.20;99.90
48416;DHT22;34227;51.840;4.146;2022-11-20T04:32:30;-0.20;99.90
48416;DHT22;34227;51.840;4.146;2022-11-20T04:34:55;-0.20;99.90
48416;DHT22;34227;51.840;4.146;2022-11-20T04:37:21;-0.20;99.90
48416;DHT22;34227;51.840;4.146;2022-11-20T04:39:46;-0.20;99.90
48416;DHT22;34227;51.840;4.146;2022-11-20T04:42:12;-0.20;99.90
48416;DHT22;34227;51.840;4.146;2022-11-20T04:44:56;-0.20;99.90
48416;DHT22;34227;51.840;4.146;2022-11-20T04:47:22;-0.20;99.90
48416;DHT22;34227;51.840;4.146;2022-11-20T04:49:47;-0.20;99.90
48416;DHT22;34227;51.840;4.146;2022-11-20T04:52:13;-0.30;99.90
48416;DHT22;34227;51.840;4.146;2022-11-20T04:54:38;-0.30;99.90
48416;DHT22;34227;51.840;4.146;2022-11-20T04:57:04;-0.20;99.90
48416;DHT22;34227;51.840;4.146;2022-11-20T04:59:29;-0.30;99.90
48416;DHT22;34227;51.840;4.146;2022-11-20T05:01:55;-0.30;99.90
48416;DHT22;34227;51.840;4.146;2022-11-20T05:04:23;-0.20;99.90
48416;DHT22;34227;51.840;4.146;2022-11-20T05:06:49;-0.30;99.90
48416;DHT22;34227;51.840;4.146;2022-11-20T05:09:15;-0.30;99.90
48416;DHT22;34227;51.840;4.146;2022-11-20T05:11:40;-0.30;99.90
48416;DHT22;34227;51.840;4.146;2022-11-20T05:14:06;-0.30;99.90
48416;DHT22;34227;51.840;4.146;2022-11-20T05:16:33;-0.30;99.90
48416;DHT22;34227;51.840;4.146;2022-11-20T05:18:59;-0.30;99.90
48416;DHT22;34227;51.840;4.146;2022-11-20T05:21:24;-0.30;99.90
48416;DHT22;34227;51.840;4.146;2022-11-20T05:23:50;-0.30;99.90
48416;DHT22;34227;51.840;4.146;2022-11-20T05:26:17;-0.40;99.90
48416;DHT22;34227;51.840;4.146;2022-11-20T05:28:43;-0.30;99.90
48416;DHT22;34227;51.840;4.146;2022-11-20T05:31:09;-0.40;99.90
48416;DHT22;34227;51.840;4.146;2022-11-20T05:33:35;-0.40;99.90
48416;DHT22;34227;51.840;4.146;2022-11-20T05:36:02;-0.40;99.90
48416;DHT22;34227;51.840;4.146;2022-11-20T05:38:27;-0.40;99.90
48416;DHT22;34227;51.840;4.146;2022-11-20T05:40:53;-0.40;99.90
48416;DHT22;34227;51.840;4.146;2022-11-20T05:43:18;-0.40;99.90
48416;DHT22;34227;51.840;4.146;2022-11-20T05:45:51;-0.40;99.90
48416;DHT22;34227;51.840;4.146;2022-11-20T05:48:17;-0.40;99.90
48416;DHT22;34227;51.840;4.146;2022-11-20T05:50:42;-0.40;99.90
48416;DHT22;34227;51.840;4.146;2022-11-20T05:53:08;-0.40;99.90
48416;DHT22;34227;51.840;4.146;2022-11-20T05:55:33;-0.40;99.90
48416;DHT22;34227;51.840;4.146;2022-11-20T05:57:59;-0.50;99.90
48416;DHT22;34227;51.840;4.146;2022-11-20T06:00:24;-0.40;99.90
48416;DHT22;34227;51.840;4.146;2022-11-20T06:02:50;-0.40;99.90
48416;DHT22;34227;51.840;4.146;2022-11-20T06:05:15;-0.40;99.90
48416;DHT22;34227;51.840;4.146;2022-11-20T06:07:41;-0.40;99.90
48416;DHT22;34227;51.840;4.146;2022-11-20T06:10:06;-0.40;99.90
48416;DHT22;34227;51.840;4.146;2022-11-20T06:12:32;-0.40;99.90
48416;DHT22;34227;51.840;4.146;2022-11-20T06:14:58;-0.40;99.90
48416;DHT22;34227;51.840;4.146;2022-11-20T06:17:24;-0.40;99.90
48416;DHT22;34227;51.840;4.146;2022-11-20T06:19:49;-0.40;99.90
48416;DHT22;34227;51.840;4.146;2022-11-20T06:22:15;-0.40;99.90
48416;DHT22;34227;51.840;4.146;2022-11-20T06:24:40;-0.40;99.90
48416;DHT22;34227;51.840;4.146;2022-11-20T06:27:06;-0.40;99.90
48416;DHT22;34227;51.840;4.146;2022-11-20T06:29:31;-0.40;99.90
48416;DHT22;34227;51.840;4.146;2022-11-20T06:31:57;-0.40;99.90
48416;DHT22;34227;51.840;4.146;2022-11-20T06:34:22;-0.40;99.90
48416;DHT22;34227;51.840;4.146;2022-11-20T06:36:48;-0.40;99.90
48416;DHT22;34227;51.840;4.146;2022-11-20T06:39:13;-0.30;99.90
48416;DHT22;34227;51.840;4.146;2022-11-20T06:41:39;-0.30;99.90
48416;DHT22;34227;51.840;4.146;2022-11-20T06:44:04;-0.30;99.90
48416;DHT22;34227;51.840;4.146;2022-11-20T06:46:30;-0.30;99.90
48416;DHT22;34227;51.840;4.146;2022-11-20T06:48:57;-0.30;99.90
48416;DHT22;34227;51.840;4.146;2022-11-20T06:51:23;-0.30;99.90
48416;DHT22;34227;51.840;4.146;2022-11-20T06:53:49;-0.20;99.90
48416;DHT22;34227;51.840;4.146;2022-11-20T06:56:14;-0.20;99.90
48416;DHT22;34227;51.840;4.146;2022-11-20T06:58:40;-0.20;99.90
48416;DHT22;34227;51.840;4.146;2022-11-20T07:01:07;-0.10;99.90
48416;DHT22;34227;51.840;4.146;2022-11-20T07:03:33;-0.20;99.90
48416;DHT22;34227;51.840;4.146;2022-11-20T07:05:58;-0.10;99.90
48416;DHT22;34227;51.840;4.146;2022-11-20T07:08:25;-0.10;99.90
48416;DHT22;34227;51.840;4.146;2022-11-20T07:10:50;-0.10;99.90
48416;DHT22;34227;51.840;4.146;2022-11-20T07:13:16;0.00;99.90
48416;DHT22;34227;51.840;4.146;2022-11-20T07:15:42;0.00;99.90
48416;DHT22;34227;51.840;4.146;2022-11-20T07:18:07;0.00;99.90
48416;DHT22;34227;51.840;4.146;2022-11-20T07:20:33;0.10;99.90
48416;DHT22;34227;51.840;4.146;2022-11-20T07:22:58;0.10;99.90
48416;DHT22;34227;51.840;4.146;2022-11-20T07:25:27;0.10;99.90
48416;DHT22;34227;51.840;4.146;2022-11-20T07:27:56;0.10;99.90
48416;DHT22;34227;51.840;4.146;2022-11-20T07:30:21;0.20;99.90
48416;DHT22;34227;51.840;4.146;2022-11-20T07:32:47;0.20;99.90
48416;DHT22;34227;51.840;4.146;2022-11-20T07:35:13;0.30;99.90
48416;DHT22;34227;51.840;4.146;2022-11-20T07:37:39;0.30;99.90
48416;DHT22;34227;51.840;4.146;2022-11-20T07:40:04;0.30;99.90
48416;DHT22;34227;51.840;4.146;2022-11-20T07:42:30;0.40;99.90
48416;DHT22;34227;51.840;4.146;2022-11-20T07:44:55;0.40;99.90
48416;DHT22;34227;51.840;4.146;2022-11-20T07:47:24;0.40;99.90
48416;DHT22;34227;51.840;4.146;2022-11-20T07:49:50;0.40;99.90
48416;DHT22;34227;51.840;4.146;2022-11-20T07:52:15;0.50;99.90
48416;DHT22;34227;51.840;4.146;2022-11-20T07:54:41;0.40;99.90
48416;DHT22;34227;51.840;4.146;2022-11-20T07:57:06;0.50;99.90
48416;DHT22;34227;51.840;4.146;2022-11-20T07:59:34;0.50;99.90
48416;DHT22;34227;51.840;4.146;2022-11-20T08:01:59;0.60;99.90
48416;DHT22;34227;51.840;4.146;2022-11-20T08:04:25;0.60;99.90
48416;DHT22;34227;51.840;4.146;2022-11-20T08:06:52;0.70;99.90
48416;DHT22;34227;51.840;4.146;2022-11-20T08:09:17;0.70;99.90
48416;DHT22;34227;51.840;4.146;2022-11-20T08:11:43;0.70;99.90
48416;DHT22;34227;51.840;4.146;2022-11-20T08:14:27;0.80;99.90
48416;DHT22;34227;51.840;4.146;2022-11-20T08:16:53;0.80;99.90
48416;DHT22;34227;51.840;4.146;2022-11-20T08:19:19;0.80;99.90
48416;DHT22;34227;51.840;4.146;2022-11-20T08:21:44;0.80;99.90
48416;DHT22;34227;51.840;4.146;2022-11-20T08:24:10;1.00;99.90
48416;DHT22;34227;51.840;4.146;2022-11-20T08:26:36;1.00;99.90
48416;DHT22;34227;51.840;4.146;2022-11-20T08:29:02;1.00;99.90
48416;DHT22;34227;51.840;4.146;2022-11-20T08:31:27;1.10;99.90
48416;DHT22;34227;51.840;4.146;2022-11-20T08:33:53;1.20;99.90
48416;DHT22;34227;51.840;4.146;2022-11-20T08:36:20;1.20;99.90
48416;DHT22;34227;51.840;4.146;2022-11-20T08:38:46;1.20;99.90
48416;DHT22;34227;51.840;4.146;2022-11-20T08:41:12;1.20;99.90
48416;DHT22;34227;51.840;4.146;2022-11-20T08:43:57;1.30;99.90
48416;DHT22;34227;51.840;4.146;2022-11-20T08:46:24;1.30;99.90
48416;DHT22;34227;51.840;4.146;2022-11-20T08:48:49;1.40;99.90
48416;DHT22;34227;51.840;4.146;2022-11-20T08:51:15;1.30;99.90
48416;DHT22;34227;51.840;4.146;2022-11-20T08:53:41;1.50;99.90
48416;DHT22;34227;51.840;4.146;2022-11-20T08:56:06;1.50;99.90
48416;DHT22;34227;51.840;4.146;2022-11-20T08:58:32;1.50;99.90
48416;DHT22;34227;51.840;4.146;2022-11-20T09:00:57;1.50;99.90
48416;DHT22;34227;51.840;4.146;2022-11-20T09:03:23;1.60;99.90
48416;DHT22;34227;51.840;4.146;2022-11-20T09:05:49;1.70;99.90
48416;DHT22;34227;51.840;4.146;2022-11-20T09:08:14;1.70;99.90
48416;DHT22;34227;51.840;4.146;2022-11-20T09:10:40;1.80;99.90
48416;DHT22;34227;51.840;4.146;2022-11-20T09:13:05;1.80;99.90
48416;DHT22;34227;51.840;4.146;2022-11-20T09:15:31;1.80;99.90
48416;DHT22;34227;51.840;4.146;2022-11-20T09:17:57;1.90;99.90
48416;DHT22;34227;51.840;4.146;2022-11-20T09:20:23;1.90;99.90
48416;DHT22;34227;51.840;4.146;2022-11-20T09:22:49;1.90;99.90
48416;DHT22;34227;51.840;4.146;2022-11-20T09:25:14;2.00;99.90
48416;DHT22;34227;51.840;4.146;2022-11-20T09:27:40;2.00;99.90
48416;DHT22;34227;51.840;4.146;2022-11-20T09:30:09;2.10;99.90
48416;DHT22;34227;51.840;4.146;2022-11-20T09:32:34;2.10;99.90
48416;DHT22;34227;51.840;4.146;2022-11-20T09:35:01;2.20;99.90
48416;DHT22;34227;51.840;4.146;2022-11-20T09:37:26;2.20;99.90
48416;DHT22;34227;51.840;4.146;2022-11-20T09:39:52;2.20;99.90
48416;DHT22;34227;51.840;4.146;2022-11-20T09:45:05;2.30;99.90
48416;DHT22;34227;51.840;4.146;2022-11-20T09:50:07;2.40;99.90
48416;DHT22;34227;51.840;4.146;2022-11-20T09:55:04;2.50;99.90
48416;DHT22;34227;51.840;4.146;2022-11-20T09:57:36;2.50;99.90
48416;DHT22;34227;51.840;4.146;2022-11-20T10:00:04;2.50;99.90
48416;DHT22;34227;51.840;4.146;2022-11-20T10:02:30;2.60;99.90
48416;DHT22;34227;51.840;4.146;2022-11-20T10:10:03;2.70;99.90
48416;DHT22;34227;51.840;4.146;2022-11-20T10:17:46;2.80;99.90
48416;DHT22;34227;51.840;4.146;2022-11-20T10:20:18;2.80;99.90
48416;DHT22;34227;51.840;4.146;2022-11-20T10:25:38;2.90;99.90
48416;DHT22;34227;51.840;4.146;2022-11-20T10:28:26;3.00;99.90
48416;DHT22;34227;51.840;4.146;2022-11-20T10:30:56;3.00;99.90
48416;DHT22;34227;51.840;4.146;2022-11-20T10:33:25;3.10;99.90
48416;DHT22;34227;51.840;4.146;2022-11-20T10:36:03;3.10;99.90
48416;DHT22;34227;51.840;4.146;2022-11-20T10:38:37;3.20;99.90
48416;DHT22;34227;51.840;4.146;2022-11-20T10:41:04;3.20;99.90
48416;DHT22;34227;51.840;4.146;2022-11-20T10:43:50;3.30;99.90
48416;DHT22;34227;51.840;4.146;2022-11-20T10:46:18;3.30;99.90
48416;DHT22;34227;51.840;4.146;2022-11-20T10:48:45;3.40;99.90
48416;DHT22;34227;51.840;4.146;2022-11-20T10:56:07;3.50;99.90
48416;DHT22;34227;51.840;4.146;2022-11-20T10:58:40;3.50;99.90
48416;DHT22;34227;51.840;4.146;2022-11-20T11:01:18;3.50;99.90
48416;DHT22;34227;51.840;4.146;2022-11-20T11:03:44;3.60;99.90
48416;DHT22;34227;51.840;4.146;2022-11-20T11:06:15;3.70;99.90
48416;DHT22;34227;51.840;4.146;2022-11-20T11:08:42;3.70;99.90
48416;DHT22;34227;51.840;4.146;2022-11-20T11:11:15;3.70;99.90
48416;DHT22;34227;51.840;4.146;2022-11-20T11:13:43;3.70;99.90
48416;DHT22;34227;51.840;4.146;2022-11-20T11:16:22;3.80;99.90
48416;DHT22;34227;51.840;4.146;2022-11-20T11:18:48;3.80;99.90
48416;DHT22;34227;51.840;4.146;2022-11-20T11:21:13;3.90;99.90
48416;DHT22;34227;51.840;4.146;2022-11-20T11:23:45;3.90;99.90
48416;DHT22;34227;51.840;4.146;2022-11-20T11:26:28;4.00;99.90
48416;DHT22;34227;51.840;4.146;2022-11-20T11:29:01;4.00;99.90
48416;DHT22;34227;51.840;4.146;2022-11-20T11:31:31;4.00;99.90
48416;DHT22;34227;51.840;4.146;2022-11-20T11:34:04;4.10;99.90
48416;DHT22;34227;51.840;4.146;2022-11-20T11:36:30;4.10;99.90
48416;DHT22;34227;51.840;4.146;2022-11-20T11:38:57;4.10;99.90
48416;DHT22;34227;51.840;4.146;2022-11-20T11:41:25;4.20;99.90
48416;DHT22;34227;51.840;4.146;2022-11-20T11:43:53;4.20;99.90
48416;DHT22;34227;51.840;4.146;2022-11-20T11:46:38;4.20;99.90
48416;DHT22;34227;51.840;4.146;2022-11-20T11:51:38;4.40;99.90
48416;DHT22;34227;51.840;4.146;2022-11-20T11:54:05;4.40;99.90
48416;DHT22;34227;51.840;4.146;2022-11-20T11:56:36;4.40;99.90
48416;DHT22;34227;51.840;4.146;2022-11-20T11:59:02;4.40;99.90
48416;DHT22;34227;51.840;4.146;2022-11-20T12:06:24;4.50;99.90
48416;DHT22;34227;51.840;4.146;2022-11-20T12:08:56;4.50;99.90
48416;DHT22;34227;51.840;4.146;2022-11-20T12:14:02;4.60;99.90
48416;DHT22;34227;51.840;4.146;2022-11-20T12:16:30;4.70;99.90
48416;DHT22;34227;51.840;4.146;2022-11-20T12:18:57;4.70;99.90
48416;DHT22;34227;51.840;4.146;2022-11-20T12:24:06;4.70;99.90
48416;DHT22;34227;51.840;4.146;2022-11-20T12:39:58;5.00;99.90
48416;DHT22;34227;51.840;4.146;2022-11-20T13:12:13;5.40;99.90
48416;DHT22;34227;51.840;4.146;2022-11-20T13:14:50;5.50;99.90
48416;DHT22;34227;51.840;4.146;2022-11-20T13:17:17;5.60;99.90
48416;DHT22;34227;51.840;4.146;2022-11-20T13:19:51;5.60;99.90
48416;DHT22;34227;51.840;4.146;2022-11-20T13:22:28;5.60;99.90
48416;DHT22;34227;51.840;4.146;2022-11-20T13:24:53;5.70;99.90
48416;DHT22;34227;51.840;4.146;2022-11-20T13:27:20;5.70;99.90
48416;DHT22;34227;51.840;4.146;2022-11-20T13:29:59;5.60;99.90
48416;DHT22;34227;51.840;4.146;2022-11-20T13:32:25;5.70;99.90
48416;DHT22;34227;51.840;4.146;2022-11-20T13:34:53;5.70;99.90
48416;DHT22;34227;51.840;4.146;2022-11-20T13:37:35;5.70;99.90
48416;DHT22;34227;51.840;4.146;2022-11-20T13:42:35;5.70;99.90
48416;DHT22;34227;51.840;4.146;2022-11-20T13:45:02;5.70;99.90
48416;DHT22;34227;51.840;4.146;2022-11-20T13:47:28;5.70;99.90
48416;DHT22;34227;51.840;4.146;2022-11-20T13:49:57;5.70;99.90
48416;DHT22;34227;51.840;4.146;2022-11-20T13:54:55;5.70;99.90
48416;DHT22;34227;51.840;4.146;2022-11-20T13:59:57;5.80;99.90
48416;DHT22;34227;51.840;4.146;2022-11-20T14:02:25;5.80;99.90
48416;DHT22;34227;51.840;4.146;2022-11-20T14:04:52;5.80;99.90
48416;DHT22;34227;51.840;4.146;2022-11-20T14:07:18;5.80;99.90
48416;DHT22;34227;51.840;4.146;2022-11-20T14:09:51;5.80;99.90
48416;DHT22;34227;51.840;4.146;2022-11-20T14:12:19;5.80;99.90
48416;DHT22;34227;51.840;4.146;2022-11-20T14:14:51;5.80;99.90
48416;DHT22;34227;51.840;4.146;2022-11-20T14:17:21;5.80;99.90
48416;DHT22;34227;51.840;4.146;2022-11-20T14:19:48;5.80;99.90
48416;DHT22;34227;51.840;4.146;2022-11-20T14:24:44;5.80;99.90
48416;DHT22;34227;51.840;4.146;2022-11-20T14:27:13;5.80;99.90
48416;DHT22;34227;51.840;4.146;2022-11-20T14:29:39;5.90;99.90
48416;DHT22;34227;51.840;4.146;2022-11-20T14:32:05;5.80;99.90
48416;DHT22;34227;51.840;4.146;2022-11-20T14:34:32;5.90;99.90
48416;DHT22;34227;51.840;4.146;2022-11-20T14:37:01;5.90;99.90
48416;DHT22;34227;51.840;4.146;2022-11-20T14:39:36;5.90;99.90
48416;DHT22;34227;51.840;4.146;2022-11-20T14:42:03;5.90;99.90
48416;DHT22;34227;51.840;4.146;2022-11-20T14:44:34;6.00;99.90
48416;DHT22;34227;51.840;4.146;2022-11-20T14:47:00;6.00;99.90
48416;DHT22;34227;51.840;4.146;2022-11-20T14:49:27;6.00;99.90
48416;DHT22;34227;51.840;4.146;2022-11-20T14:51:58;6.00;99.90
48416;DHT22;34227;51.840;4.146;2022-11-20T14:54:24;6.10;99.90
48416;DHT22;34227;51.840;4.146;2022-11-20T14:56:55;6.10;99.90
48416;DHT22;34227;51.840;4.146;2022-11-20T14:59:22;6.10;99.90
48416;DHT22;34227;51.840;4.146;2022-11-20T15:01:55;6.20;99.90
48416;DHT22;34227;51.840;4.146;2022-11-20T15:04:22;6.20;99.90
48416;DHT22;34227;51.840;4.146;2022-11-20T15:06:52;6.20;99.90
48416;DHT22;34227;51.840;4.146;2022-11-20T15:09:18;6.30;99.90
48416;DHT22;34227;51.840;4.146;2022-11-20T15:11:59;6.30;99.90
48416;DHT22;34227;51.840;4.146;2022-11-20T15:14:27;6.30;99.90
48416;DHT22;34227;51.840;4.146;2022-11-20T15:16:53;6.40;99.90
48416;DHT22;34227;51.840;4.146;2022-11-20T15:19:20;6.40;99.90
48416;DHT22;34227;51.840;4.146;2022-11-20T15:21:46;6.40;99.90
48416;DHT22;34227;51.840;4.146;2022-11-20T15:24:11;6.50;99.90
48416;DHT22;34227;51.840;4.146;2022-11-20T15:26:37;6.50;99.90
48416;DHT22;34227;51.840;4.146;2022-11-20T15:29:06;6.60;99.90
48416;DHT22;34227;51.840;4.146;2022-11-20T15:31:33;6.60;99.90
48416;DHT22;34227;51.840;4.146;2022-11-20T15:33:58;6.70;99.90
48416;DHT22;34227;51.840;4.146;2022-11-20T15:36:24;6.70;99.90
48416;DHT22;34227;51.840;4.146;2022-11-20T15:38:49;6.80;99.90
48416;DHT22;34227;51.840;4.146;2022-11-20T15:41:15;6.80;99.90
48416;DHT22;34227;51.840;4.146;2022-11-20T15:43:40;6.90;99.90
48416;DHT22;34227;51.840;4.146;2022-11-20T15:46:09;6.90;99.90
48416;DHT22;34227;51.840;4.146;2022-11-20T15:48:37;6.90;99.90
48416;DHT22;34227;51.840;4.146;2022-11-20T15:53:29;7.10;99.90
48416;DHT22;34227;51.840;4.146;2022-11-20T15:55:54;7.10;99.90
48416;DHT22;34227;51.840;4.146;2022-11-20T15:58:20;7.20;99.90
48416;DHT22;34227;51.840;4.146;2022-11-20T16:00:48;7.30;99.90
48416;DHT22;34227;51.840;4.146;2022-11-20T16:03:14;7.30;99.90
48416;DHT22;34227;51.840;4.146;2022-11-20T16:05:40;7.30;99.90
48416;DHT22;34227;51.840;4.146;2022-11-20T16:08:06;7.40;99.90
48416;DHT22;34227;51.840;4.146;2022-11-20T16:10:31;7.30;99.90
48416;DHT22;34227;51.840;4.146;2022-11-20T16:12:57;7.30;99.90
48416;DHT22;34227;51.840;4.146;2022-11-20T16:15:41;7.40;99.90
48416;DHT22;34227;51.840;4.146;2022-11-20T16:18:10;7.40;99.90
48416;DHT22;34227;51.840;4.146;2022-11-20T16:20:36;7.40;99.90
48416;DHT22;34227;51.840;4.146;2022-11-20T16:23:02;7.40;99.90
48416;DHT22;34227;51.840;4.146;2022-11-20T16:25:28;7.40;99.90
48416;DHT22;34227;51.840;4.146;2022-11-20T16:27:53;7.40;99.90
48416;DHT22;34227;51.840;4.146;2022-11-20T16:30:19;7.40;99.90
48416;DHT22;34227;51.840;4.146;2022-11-20T16:32:44;7.40;99.90
48416;DHT22;34227;51.840;4.146;2022-11-20T16:35:10;7.40;99.90
48416;DHT22;34227;51.840;4.146;2022-11-20T16:37:35;7.40;99.90
48416;DHT22;34227;51.840;4.146;2022-11-20T16:40:01;7.40;99.90
48416;DHT22;34227;51.840;4.146;2022-11-20T16:42:26;7.40;99.90
48416;DHT22;34227;51.840;4.146;2022-11-20T16:44:52;7.40;99.90
48416;DHT22;34227;51.840;4.146;2022-11-20T16:47:17;7.30;99.90
48416;DHT22;34227;51.840;4.146;2022-11-20T16:49:43;7.30;99.90
48416;DHT22;34227;51.840;4.146;2022-11-20T16:52:08;7.30;99.90
48416;DHT22;34227;51.840;4.146;2022-11-20T16:54:34;7.30;99.90
48416;DHT22;34227;51.840;4.146;2022-11-20T16:57:00;7.30;99.90
48416;DHT22;34227;51.840;4.146;2022-11-20T16:59:25;7.20;99.90
48416;DHT22;34227;51.840;4.146;2022-11-20T17:01:51;7.20;99.90
48416;DHT22;34227;51.840;4.146;2022-11-20T17:04:19;7.20;99.90
48416;DHT22;34227;51.840;4.146;2022-11-20T17:06:48;7.20;99.90
48416;DHT22;34227;51.840;4.146;2022-11-20T17:09:13;7.20;99.90
48416;DHT22;34227;51.840;4.146;2022-11-20T17:11:39;7.20;99.90
48416;DHT22;34227;51.840;4.146;2022-11-20T17:14:05;7.20;99.90
48416;DHT22;34227;51.840;4.146;2022-11-20T17:16:36;7.20;99.90
48416;DHT22;34227;51.840;4.146;2022-11-20T17:19:02;7.20;99.90
48416;DHT22;34227;51.840;4.146;2022-11-20T17:21:32;7.20;99.90
48416;DHT22;34227;51.840;4.146;2022-11-20T17:24:00;7.10;99.90
48416;DHT22;34227;51.840;4.146;2022-11-20T17:26:29;7.10;99.90
48416;DHT22;34227;51.840;4.146;2022-11-20T17:28:59;7.10;99.90
48416;DHT22;34227;51.840;4.146;2022-11-20T17:31:25;7.10;99.90
48416;DHT22;34227;51.840;4.146;2022-11-20T17:33:51;7.10;99.90
48416;DHT22;34227;51.840;4.146;2022-11-20T17:36:17;7.10;99.90